createdAt,value
2019-02-14T00:00:26.314Z,20.00
2019-02-14T00:01:26.295Z,20.00
2019-02-14T00:02:26.249Z,20.00
2019-02-14T00:03:26.241Z,20.00
2019-02-14T00:04:26.211Z,20.00
2019-02-14T00:05:26.621Z,20.00
2019-02-14T00:06:26.249Z,20.00
2019-02-14T00:07:26.187Z,20.00
2019-02-14T00:08:26.225Z,20.00
2019-02-14T00:09:26.172Z,20.00
2019-02-14T00:10:26.175Z,20.00
2019-02-14T00:11:26.163Z,20.00
2019-02-14T00:12:26.705Z,20.00
2019-02-14T00:13:26.115Z,16.00
2019-02-14T00:14:26.848Z,20.00
2019-02-14T00:15:26.117Z,20.00
2019-02-14T00:16:26.102Z,20.00
2019-02-14T00:17:26.805Z,20.00
2019-02-14T00:18:26.911Z,20.00
2019-02-14T00:19:26.509Z,16.00
2019-02-14T00:20:26.090Z,20.00
2019-02-14T00:21:26.035Z,20.00
2019-02-14T00:22:26.034Z,20.00
2019-02-14T00:23:26.027Z,20.00
2019-02-14T00:24:26.069Z,20.00
2019-02-14T00:25:25.989Z,20.00
2019-02-14T00:26:32.195Z,20.00
2019-02-14T00:27:25.984Z,20.00
2019-02-14T00:28:25.975Z,20.00
2019-02-14T00:29:25.958Z,20.00
2019-02-14T00:30:26.027Z,20.00
2019-02-14T00:31:26.810Z,20.00
2019-02-14T00:32:25.971Z,20.00
2019-02-14T00:33:26.388Z,20.00
2019-02-14T00:34:26.373Z,20.00
2019-02-14T00:35:25.894Z,20.00
2019-02-14T00:36:26.019Z,20.00
2019-02-14T00:37:25.890Z,20.00
2019-02-14T00:38:25.872Z,20.00
2019-02-14T00:39:25.886Z,20.00
2019-02-14T00:40:26.246Z,20.00
2019-02-14T00:41:25.838Z,20.00
2019-02-14T00:42:25.886Z,20.00
2019-02-14T00:43:25.804Z,20.00
2019-02-14T00:44:25.815Z,20.00
2019-02-14T00:45:25.801Z,20.00
2019-02-14T00:46:25.780Z,16.00
2019-02-14T00:47:26.092Z,20.00
2019-02-14T00:48:26.073Z,20.00
2019-02-14T00:49:26.315Z,20.00
2019-02-14T00:50:25.729Z,20.00
2019-02-14T00:51:25.730Z,20.00
2019-02-14T00:52:25.738Z,20.00
2019-02-14T00:53:25.692Z,20.00
2019-02-14T00:54:26.191Z,20.00
2019-02-14T00:55:25.679Z,20.00
2019-02-14T00:56:25.680Z,20.00
2019-02-14T00:57:25.728Z,16.00
2019-02-14T00:58:25.660Z,20.00
2019-02-14T00:59:25.645Z,20.00
2019-02-14T01:00:25.666Z,20.00
2019-02-14T01:01:25.640Z,20.00
2019-02-14T01:02:25.657Z,20.00
2019-02-14T01:03:25.599Z,20.00
2019-02-14T01:04:25.605Z,20.00
2019-02-14T01:05:33.137Z,20.00
2019-02-14T01:06:26.640Z,20.00
2019-02-14T01:07:26.029Z,20.00
2019-02-14T01:08:25.601Z,20.00
2019-02-14T01:09:25.574Z,20.00
2019-02-14T01:10:25.568Z,20.00
2019-02-14T01:11:25.525Z,20.00
2019-02-14T01:12:25.581Z,20.00
2019-02-14T01:13:25.853Z,20.00
2019-02-14T01:14:25.508Z,20.00
2019-02-14T01:15:25.510Z,20.00
2019-02-14T01:16:25.466Z,16.00
2019-02-14T01:17:25.445Z,20.00
2019-02-14T01:18:25.496Z,20.00
2019-02-14T01:19:25.444Z,20.00
2019-02-14T01:20:25.411Z,20.00
2019-02-14T01:21:25.451Z,20.00
2019-02-14T01:22:25.398Z,20.00
2019-02-14T01:23:25.408Z,20.00
2019-02-14T01:24:25.675Z,20.00
2019-02-14T01:25:25.702Z,20.00
2019-02-14T01:26:25.367Z,20.00
2019-02-14T01:27:25.391Z,20.00
2019-02-14T01:28:25.355Z,20.00
2019-02-14T01:29:25.350Z,20.00
2019-02-14T01:30:25.370Z,20.00
2019-02-14T01:31:25.296Z,20.00
2019-02-14T01:32:25.749Z,20.00
2019-02-14T01:33:25.311Z,20.00
2019-02-14T01:34:25.302Z,20.00
2019-02-14T01:35:25.261Z,20.00
2019-02-14T01:36:25.304Z,20.00
2019-02-14T01:37:25.252Z,20.00
2019-02-14T01:38:25.244Z,20.00
2019-02-14T01:39:25.617Z,20.00
2019-02-14T01:40:25.206Z,20.00
2019-02-14T01:41:25.198Z,20.00
2019-02-14T01:42:25.491Z,20.00
2019-02-14T01:43:25.187Z,20.00
2019-02-14T01:44:25.168Z,16.00
2019-02-14T01:45:25.182Z,20.00
2019-02-14T01:46:25.628Z,20.00
2019-02-14T01:47:25.155Z,20.00
2019-02-14T01:48:25.171Z,20.00
2019-02-14T01:49:25.137Z,20.00
2019-02-14T01:50:25.107Z,20.00
2019-02-14T01:51:25.115Z,20.00
2019-02-14T01:52:25.112Z,20.00
2019-02-14T01:53:26.292Z,20.00
2019-02-14T01:54:25.100Z,20.00
2019-02-14T01:55:25.791Z,20.00
2019-02-14T01:56:26.148Z,20.00
2019-02-14T01:57:25.061Z,20.00
2019-02-14T01:58:25.787Z,20.00
2019-02-14T01:59:25.794Z,20.00
2019-02-14T02:00:25.770Z,20.00
2019-02-14T02:01:25.000Z,20.00
2019-02-14T02:02:25.802Z,20.00
2019-02-14T02:03:25.032Z,20.00
2019-02-14T02:04:24.965Z,20.00
2019-02-14T02:05:24.948Z,20.00
2019-02-14T02:06:24.971Z,20.00
2019-02-14T02:07:26.205Z,20.00
2019-02-14T02:08:24.924Z,20.00
2019-02-14T02:09:24.931Z,20.00
2019-02-14T02:10:24.897Z,20.00
2019-02-14T02:11:25.796Z,20.00
2019-02-14T02:12:24.918Z,20.00
2019-02-14T02:13:24.859Z,20.00
2019-02-14T02:14:25.196Z,20.00
2019-02-14T02:15:24.869Z,20.00
2019-02-14T02:16:24.829Z,20.00
2019-02-14T02:17:24.828Z,20.00
2019-02-14T02:18:25.128Z,20.00
2019-02-14T02:19:24.816Z,20.00
2019-02-14T02:20:33.075Z,20.00
2019-02-14T02:21:25.811Z,20.00
2019-02-14T02:22:24.777Z,20.00
2019-02-14T02:23:24.757Z,20.00
2019-02-14T02:24:24.786Z,20.00
2019-02-14T02:25:24.751Z,20.00
2019-02-14T02:26:24.718Z,20.00
2019-02-14T02:27:25.034Z,20.00
2019-02-14T02:28:24.702Z,20.00
2019-02-14T02:29:24.694Z,20.00
2019-02-14T02:30:24.725Z,20.00
2019-02-14T02:31:24.672Z,20.00
2019-02-14T02:32:24.670Z,20.00
2019-02-14T02:33:24.681Z,20.00
2019-02-14T02:34:25.764Z,20.00
2019-02-14T02:35:24.627Z,16.00
2019-02-14T02:36:25.013Z,20.00
2019-02-14T02:37:24.607Z,20.00
2019-02-14T02:38:24.641Z,20.00
2019-02-14T02:39:24.591Z,20.00
2019-02-14T02:40:24.576Z,20.00
2019-02-14T02:41:24.893Z,20.00
2019-02-14T02:42:24.587Z,20.00
2019-02-14T02:43:24.541Z,20.00
2019-02-14T02:44:24.571Z,20.00
2019-02-14T02:45:24.525Z,20.00
2019-02-14T02:46:24.511Z,20.00
2019-02-14T02:47:24.513Z,20.00
2019-02-14T02:48:24.855Z,20.00
2019-02-14T02:49:24.483Z,20.00
2019-02-14T02:50:24.505Z,20.00
2019-02-14T02:51:24.452Z,20.00
2019-02-14T02:52:24.453Z,20.00
2019-02-14T02:53:24.446Z,20.00
2019-02-14T02:54:24.766Z,20.00
2019-02-14T02:55:24.705Z,20.00
2019-02-14T02:56:24.450Z,20.00
2019-02-14T02:57:24.401Z,16.00
2019-02-14T02:58:24.397Z,16.00
2019-02-14T02:59:24.388Z,16.00
2019-02-14T03:01:52.637Z,20.00
2019-02-14T03:02:52.577Z,20.00
2019-02-14T03:03:52.590Z,20.00
2019-02-14T03:04:52.569Z,20.00
2019-02-14T03:05:52.636Z,20.00
2019-02-14T03:06:52.543Z,20.00
2019-02-14T03:07:53.178Z,20.00
2019-02-14T03:08:52.804Z,20.00
2019-02-14T03:09:52.504Z,20.00
2019-02-14T03:10:54.136Z,20.00
2019-02-14T03:11:52.488Z,20.00
2019-02-14T03:12:52.473Z,20.00
2019-02-14T03:13:52.682Z,20.00
2019-02-14T03:14:52.447Z,20.00
2019-02-14T03:15:52.741Z,20.00
2019-02-14T03:16:52.456Z,20.00
2019-02-14T03:17:52.415Z,20.00
2019-02-14T03:18:52.418Z,16.00
2019-02-14T03:19:52.426Z,20.00
2019-02-14T03:20:52.409Z,20.00
2019-02-14T03:21:52.384Z,20.00
2019-02-14T03:22:52.651Z,20.00
2019-02-14T03:23:52.350Z,20.00
2019-02-14T03:24:52.340Z,20.00
2019-02-14T03:25:52.355Z,20.00
2019-02-14T03:26:52.346Z,20.00
2019-02-14T03:27:52.310Z,20.00
2019-02-14T03:28:52.297Z,20.00
2019-02-14T03:29:52.591Z,20.00
2019-02-14T03:30:52.277Z,20.00
2019-02-14T03:31:52.454Z,20.00
2019-02-14T03:32:52.294Z,20.00
2019-02-14T03:33:52.247Z,20.00
2019-02-14T03:34:52.233Z,20.00
2019-02-14T03:35:52.223Z,20.00
2019-02-14T03:36:52.495Z,20.00
2019-02-14T03:37:52.231Z,20.00
2019-02-14T03:38:52.194Z,20.00
2019-02-14T03:39:52.179Z,20.00
2019-02-14T03:40:52.178Z,20.00
2019-02-14T03:41:52.180Z,20.00
2019-02-14T03:42:53.961Z,20.00
2019-02-14T03:43:52.481Z,20.00
2019-02-14T03:44:52.127Z,20.00
2019-02-14T03:45:52.117Z,20.00
2019-02-14T03:46:52.104Z,20.00
2019-02-14T03:47:52.094Z,20.00
2019-02-14T03:48:52.092Z,16.00
2019-02-14T03:49:52.353Z,20.00
2019-02-14T03:50:52.349Z,20.00
2019-02-14T03:51:52.053Z,20.00
2019-02-14T03:52:52.047Z,20.00
2019-02-14T03:53:52.038Z,20.00
2019-02-14T03:54:52.022Z,20.00
2019-02-14T03:55:52.040Z,20.00
2019-02-14T03:56:52.005Z,20.00
2019-02-14T03:57:52.281Z,20.00
2019-02-14T03:58:51.981Z,20.00
2019-02-14T03:59:51.982Z,20.00
2019-02-14T04:00:51.962Z,16.00
2019-02-14T04:01:51.984Z,16.00
2019-02-14T04:02:51.939Z,16.00
2019-02-14T04:03:51.929Z,16.00
2019-02-14T04:04:52.223Z,16.00
2019-02-14T04:05:51.906Z,16.00
2019-02-14T04:06:51.896Z,16.00
2019-02-14T04:07:52.260Z,16.00
2019-02-14T04:08:51.875Z,16.00
2019-02-14T04:09:51.865Z,16.00
2019-02-14T04:10:51.858Z,16.00
2019-02-14T04:11:52.153Z,16.00
2019-02-14T04:12:51.832Z,16.00
2019-02-14T04:13:51.877Z,16.00
2019-02-14T04:14:51.815Z,16.00
2019-02-14T04:15:51.808Z,16.00
2019-02-14T04:16:51.791Z,16.00
2019-02-14T04:17:51.785Z,16.00
2019-02-14T04:18:52.052Z,16.00
2019-02-14T04:19:51.802Z,16.00
2019-02-14T04:20:51.747Z,16.00
2019-02-14T04:21:51.739Z,16.00
2019-02-14T04:22:51.730Z,16.00
2019-02-14T04:23:51.716Z,16.00
2019-02-14T04:24:51.705Z,16.00
2019-02-14T04:25:52.010Z,16.00
2019-02-14T04:26:51.738Z,16.00
2019-02-14T04:27:51.680Z,16.00
2019-02-14T04:28:51.676Z,16.00
2019-02-14T04:29:51.662Z,16.00
2019-02-14T04:30:51.641Z,16.00
2019-02-14T04:31:51.658Z,16.00
2019-02-14T04:32:51.623Z,16.00
2019-02-14T04:33:51.611Z,16.00
2019-02-14T04:34:51.601Z,16.00
2019-02-14T04:35:51.595Z,16.00
2019-02-14T04:36:51.579Z,16.00
2019-02-14T04:37:51.906Z,16.00
2019-02-14T04:38:51.560Z,16.00
2019-02-14T04:39:51.549Z,16.00
2019-02-14T04:40:51.537Z,16.00
2019-02-14T04:41:51.527Z,16.00
2019-02-14T04:42:51.524Z,16.00
2019-02-14T04:43:51.853Z,16.00
2019-02-14T04:44:51.498Z,16.00
2019-02-14T04:45:51.496Z,16.00
2019-02-14T04:46:51.475Z,16.00
2019-02-14T04:47:51.467Z,16.00
2019-02-14T04:48:51.454Z,16.00
2019-02-14T04:49:51.753Z,16.00
2019-02-14T04:50:51.435Z,16.00
2019-02-14T04:51:51.469Z,16.00
2019-02-14T04:52:51.416Z,16.00
2019-02-14T04:53:51.403Z,16.00
2019-02-14T04:54:51.392Z,16.00
2019-02-14T04:55:51.712Z,16.00
2019-02-14T04:56:51.374Z,16.00
2019-02-14T04:57:51.363Z,16.00
2019-02-14T04:58:51.351Z,16.00
2019-02-14T04:59:51.343Z,16.00
2019-02-14T05:00:51.329Z,16.00
2019-02-14T05:01:51.647Z,16.00
2019-02-14T05:02:51.309Z,16.00
2019-02-14T05:03:51.301Z,16.00
2019-02-14T05:04:51.289Z,16.00
2019-02-14T05:05:51.277Z,16.00
2019-02-14T05:06:51.275Z,16.00
2019-02-14T05:07:51.290Z,16.00
2019-02-14T05:08:51.525Z,16.00
2019-02-14T05:09:51.238Z,16.00
2019-02-14T05:10:51.227Z,16.00
2019-02-14T05:11:51.221Z,16.00
2019-02-14T05:12:51.204Z,16.00
2019-02-14T05:13:51.230Z,16.00
2019-02-14T05:14:51.183Z,16.00
2019-02-14T05:15:51.467Z,16.00
2019-02-14T05:16:51.163Z,16.00
2019-02-14T05:17:51.159Z,16.00
2019-02-14T05:18:51.142Z,16.00
2019-02-14T05:19:51.176Z,16.00
2019-02-14T05:20:51.126Z,16.00
2019-02-14T05:21:51.112Z,16.00
2019-02-14T05:22:51.383Z,16.00
2019-02-14T05:23:51.097Z,16.00
2019-02-14T05:24:51.087Z,16.00
2019-02-14T05:25:51.101Z,16.00
2019-02-14T05:26:51.059Z,16.00
2019-02-14T05:27:51.048Z,20.00
2019-02-14T05:28:51.038Z,16.00
2019-02-14T05:29:51.308Z,16.00
2019-02-14T05:30:51.032Z,16.00
2019-02-14T05:31:51.036Z,16.00
2019-02-14T05:32:51.009Z,16.00
2019-02-14T05:33:50.988Z,16.00
2019-02-14T05:34:50.976Z,16.00
2019-02-14T05:35:50.966Z,16.00
2019-02-14T05:36:54.717Z,16.00
2019-02-14T05:37:51.346Z,20.00
2019-02-14T05:38:50.937Z,16.00
2019-02-14T05:39:50.925Z,16.00
2019-02-14T05:40:50.918Z,16.00
2019-02-14T05:41:50.903Z,16.00
2019-02-14T05:42:50.897Z,16.00
2019-02-14T05:43:51.240Z,16.00
2019-02-14T05:44:50.877Z,16.00
2019-02-14T05:45:50.870Z,16.00
2019-02-14T05:46:50.857Z,16.00
2019-02-14T05:47:50.842Z,16.00
2019-02-14T05:48:50.836Z,16.00
2019-02-14T05:49:50.855Z,16.00
2019-02-14T05:50:51.090Z,16.00
2019-02-14T05:51:50.800Z,16.00
2019-02-14T05:52:50.808Z,16.00
2019-02-14T05:53:50.790Z,16.00
2019-02-14T05:54:50.850Z,16.00
2019-02-14T05:55:50.820Z,16.00
2019-02-14T05:56:50.758Z,16.00
2019-02-14T05:57:51.018Z,16.00
2019-02-14T05:58:50.733Z,16.00
2019-02-14T05:59:50.723Z,16.00
2019-02-14T06:00:50.711Z,16.00
2019-02-14T06:01:50.726Z,16.00
2019-02-14T06:02:50.715Z,16.00
2019-02-14T06:03:50.678Z,16.00
2019-02-14T06:04:50.955Z,20.00
2019-02-14T06:05:50.660Z,16.00
2019-02-14T06:06:50.647Z,16.00
2019-02-14T06:07:50.679Z,20.00
2019-02-14T06:08:50.624Z,20.00
2019-02-14T06:09:50.614Z,24.00
2019-02-14T06:10:50.632Z,20.00
2019-02-14T06:11:50.896Z,20.00
2019-02-14T06:12:50.583Z,20.00
2019-02-14T06:13:50.805Z,20.00
2019-02-14T06:14:50.560Z,16.00
2019-02-14T06:15:50.547Z,20.00
2019-02-14T06:16:50.542Z,20.00
2019-02-14T06:17:50.527Z,20.00
2019-02-14T06:18:50.837Z,20.00
2019-02-14T06:19:50.567Z,24.00
2019-02-14T06:20:50.500Z,20.00
2019-02-14T06:21:50.492Z,24.00
2019-02-14T06:22:50.617Z,24.00
2019-02-14T06:23:50.468Z,24.00
2019-02-14T06:24:50.460Z,28.00
2019-02-14T06:25:50.752Z,28.00
2019-02-14T06:26:50.434Z,32.00
2019-02-14T06:27:50.422Z,32.00
2019-02-14T06:28:50.412Z,36.00
2019-02-14T06:29:50.401Z,44.00
2019-02-14T06:30:50.412Z,44.00
2019-02-14T06:31:50.962Z,52.00
2019-02-14T06:32:50.389Z,52.00
2019-02-14T06:33:50.360Z,60.00
2019-02-14T06:34:50.388Z,64.00
2019-02-14T06:35:50.338Z,72.00
2019-02-14T06:36:50.327Z,80.00
2019-02-14T06:37:50.345Z,88.00
2019-02-14T06:38:50.610Z,92.00
2019-02-14T06:39:50.295Z,104.00
2019-02-14T06:40:50.284Z,112.00
2019-02-14T06:41:50.275Z,104.00
2019-02-14T06:42:50.263Z,112.00
2019-02-14T06:43:50.280Z,120.00
2019-02-14T06:44:50.240Z,128.00
2019-02-14T06:45:50.509Z,140.00
2019-02-14T06:46:50.220Z,144.00
2019-02-14T06:47:50.257Z,156.00
2019-02-14T06:48:50.199Z,140.00
2019-02-14T06:49:50.517Z,172.00
2019-02-14T06:50:50.193Z,180.00
2019-02-14T06:51:50.167Z,192.00
2019-02-14T06:52:50.652Z,208.00
2019-02-14T06:53:50.145Z,216.00
2019-02-14T06:54:50.136Z,228.00
2019-02-14T06:55:50.164Z,244.00
2019-02-14T06:56:50.120Z,256.00
2019-02-14T06:57:50.103Z,264.00
2019-02-14T06:58:50.166Z,272.00
2019-02-14T06:59:51.053Z,284.00
2019-02-14T07:00:50.080Z,300.00
2019-02-14T07:01:50.113Z,300.00
2019-02-14T07:02:50.065Z,328.00
2019-02-14T07:03:50.047Z,348.00
2019-02-14T07:04:50.905Z,372.00
2019-02-14T07:05:50.057Z,400.00
2019-02-14T07:06:50.025Z,428.00
2019-02-14T07:07:50.077Z,448.00
2019-02-14T07:08:49.996Z,472.00
2019-02-14T07:09:49.989Z,496.00
2019-02-14T07:10:49.970Z,520.00
2019-02-14T07:11:50.459Z,540.00
2019-02-14T07:12:49.997Z,560.00
2019-02-14T07:13:49.967Z,572.00
2019-02-14T07:14:49.920Z,580.00
2019-02-14T07:15:50.700Z,596.00
2019-02-14T07:16:49.900Z,624.00
2019-02-14T07:17:49.892Z,652.00
2019-02-14T07:18:49.904Z,696.00
2019-02-14T07:19:49.910Z,740.00
2019-02-14T07:20:49.857Z,784.00
2019-02-14T07:21:49.846Z,828.00
2019-02-14T07:22:49.838Z,884.00
2019-02-14T07:23:50.108Z,912.00
2019-02-14T07:24:49.822Z,952.00
2019-02-14T07:25:50.360Z,992.00
2019-02-14T07:26:49.813Z,1032.00
2019-02-14T07:27:49.806Z,1084.00
2019-02-14T07:28:49.778Z,1136.00
2019-02-14T07:29:49.773Z,1192.00
2019-02-14T07:30:50.666Z,1248.00
2019-02-14T07:31:49.768Z,1308.00
2019-02-14T07:32:49.737Z,1368.00
2019-02-14T07:33:49.727Z,1428.00
2019-02-14T07:34:49.713Z,1492.00
2019-02-14T07:35:49.713Z,1544.00
2019-02-14T07:36:49.687Z,1588.00
2019-02-14T07:37:49.999Z,1640.00
2019-02-14T07:38:49.667Z,1680.00
2019-02-14T07:39:49.661Z,1708.00
2019-02-14T07:40:49.644Z,1736.00
2019-02-14T07:41:49.634Z,1776.00
2019-02-14T07:42:49.632Z,1816.00
2019-02-14T07:43:49.660Z,1844.00
2019-02-14T07:44:49.884Z,1864.00
2019-02-14T07:45:49.592Z,1888.00
2019-02-14T07:46:49.653Z,1904.00
2019-02-14T07:47:49.572Z,1920.00
2019-02-14T07:48:49.624Z,1940.00
2019-02-14T07:49:50.177Z,1976.00
2019-02-14T07:50:49.561Z,2032.00
2019-02-14T07:51:49.925Z,2072.00
2019-02-14T07:52:49.537Z,2108.00
2019-02-14T07:53:49.511Z,2148.00
2019-02-14T07:54:49.659Z,2176.00
2019-02-14T07:55:49.613Z,2208.00
2019-02-14T07:56:49.491Z,2244.00
2019-02-14T07:57:49.473Z,2300.00
2019-02-14T07:58:49.736Z,2380.00
2019-02-14T07:59:49.455Z,2444.00
2019-02-14T08:00:49.441Z,2532.00
2019-02-14T08:01:49.500Z,2616.00
2019-02-14T08:02:49.436Z,2684.00
2019-02-14T08:03:49.410Z,2732.00
2019-02-14T08:04:49.397Z,2792.00
2019-02-14T08:05:49.721Z,2864.00
2019-02-14T08:06:49.450Z,2952.00
2019-02-14T08:07:49.450Z,2972.00
2019-02-14T08:08:49.359Z,3028.00
2019-02-14T08:09:49.347Z,3064.00
2019-02-14T08:10:49.335Z,3128.00
2019-02-14T08:11:49.681Z,3180.00
2019-02-14T08:12:49.708Z,3212.00
2019-02-14T08:13:49.351Z,3276.00
2019-02-14T08:14:49.315Z,3292.00
2019-02-14T08:15:49.284Z,3348.00
2019-02-14T08:16:49.279Z,3380.00
2019-02-14T08:17:49.280Z,3388.00
2019-02-14T08:18:49.254Z,3424.00
2019-02-14T08:19:50.523Z,3464.00
2019-02-14T08:20:49.235Z,3520.00
2019-02-14T08:21:49.220Z,3588.00
2019-02-14T08:22:49.212Z,3684.00
2019-02-14T08:23:49.228Z,3804.00
2019-02-14T08:24:49.194Z,3884.00
2019-02-14T08:25:49.216Z,3928.00
2019-02-14T08:26:49.637Z,4032.00
2019-02-14T08:27:49.214Z,4104.00
2019-02-14T08:28:49.189Z,4164.00
2019-02-14T08:29:49.390Z,4248.00
2019-02-14T08:30:49.143Z,4280.00
2019-02-14T08:31:49.246Z,4268.00
2019-02-14T08:32:49.715Z,4248.00
2019-02-14T08:33:50.159Z,4276.00
2019-02-14T08:34:49.193Z,4284.00
2019-02-14T08:35:49.192Z,4280.00
2019-02-14T08:36:49.178Z,4304.00
2019-02-14T08:37:50.132Z,4316.00
2019-02-14T08:38:49.117Z,4368.00
2019-02-14T08:39:49.105Z,4416.00
2019-02-14T08:40:49.705Z,4500.00
2019-02-14T08:41:49.037Z,4556.00
2019-02-14T08:42:49.968Z,4616.00
2019-02-14T08:43:49.284Z,4636.00
2019-02-14T08:44:49.005Z,4640.00
2019-02-14T08:45:49.024Z,4660.00
2019-02-14T08:46:49.268Z,4652.00
2019-02-14T08:47:49.081Z,4636.00
2019-02-14T08:48:49.063Z,4608.00
2019-02-14T08:49:50.397Z,4580.00
2019-02-14T08:50:49.001Z,4636.00
2019-02-14T08:51:49.026Z,4756.00
2019-02-14T08:52:49.700Z,4876.00
2019-02-14T08:53:49.260Z,4912.00
2019-02-14T08:54:49.063Z,4976.00
2019-02-14T08:55:49.371Z,5060.00
2019-02-14T08:56:48.867Z,5152.00
2019-02-14T08:57:48.857Z,5196.00
2019-02-14T08:58:48.840Z,5288.00
2019-02-14T08:59:48.847Z,5332.00
2019-02-14T09:00:48.866Z,5412.00
2019-02-14T09:01:48.888Z,5480.00
2019-02-14T09:02:48.804Z,5524.00
2019-02-14T09:03:48.805Z,5556.00
2019-02-14T09:04:48.782Z,5612.00
2019-02-14T09:05:48.791Z,5648.00
2019-02-14T09:06:49.205Z,5668.00
2019-02-14T09:07:54.727Z,5708.00
2019-02-14T09:08:49.748Z,5728.00
2019-02-14T09:09:48.724Z,5752.00
2019-02-14T09:10:48.856Z,5760.00
2019-02-14T09:11:48.704Z,5768.00
2019-02-14T09:12:48.698Z,5736.00
2019-02-14T09:13:50.252Z,5600.00
2019-02-14T09:14:48.692Z,5592.00
2019-02-14T09:15:48.708Z,5592.00
2019-02-14T09:16:48.652Z,5600.00
2019-02-14T09:17:48.649Z,5604.00
2019-02-14T09:18:48.703Z,5724.00
2019-02-14T09:19:49.377Z,5716.00
2019-02-14T09:20:48.941Z,5776.00
2019-02-14T09:21:49.120Z,6116.00
2019-02-14T09:22:48.593Z,6600.00
2019-02-14T09:23:48.579Z,6576.00
2019-02-14T09:24:48.582Z,6916.00
2019-02-14T09:25:48.608Z,6444.00
2019-02-14T09:26:48.552Z,6376.00
2019-02-14T09:27:49.118Z,6512.00
2019-02-14T09:28:48.538Z,6500.00
2019-02-14T09:29:48.517Z,6424.00
2019-02-14T09:30:48.523Z,6636.00
2019-02-14T09:31:48.595Z,6492.00
2019-02-14T09:32:48.491Z,6536.00
2019-02-14T09:33:48.582Z,6540.00
2019-02-14T09:34:48.521Z,6060.00
2019-02-14T09:35:48.497Z,6504.00
2019-02-14T09:36:48.688Z,6772.00
2019-02-14T09:37:49.141Z,7268.00
2019-02-14T09:38:48.447Z,7092.00
2019-02-14T09:39:48.423Z,6604.00
2019-02-14T09:40:48.402Z,6424.00
2019-02-14T09:41:48.389Z,6408.00
2019-02-14T09:42:48.384Z,6400.00
2019-02-14T09:43:48.430Z,6740.00
2019-02-14T09:44:48.410Z,7240.00
2019-02-14T09:45:48.636Z,7360.00
2019-02-14T09:46:48.340Z,7532.00
2019-02-14T09:47:48.331Z,7236.00
2019-02-14T09:48:48.322Z,6988.00
2019-02-14T09:49:48.391Z,7060.00
2019-02-14T09:50:48.303Z,7296.00
2019-02-14T09:51:48.608Z,7752.00
2019-02-14T09:52:48.291Z,7528.00
2019-02-14T09:53:48.273Z,7600.00
2019-02-14T09:54:48.274Z,7308.00
2019-02-14T09:55:48.391Z,7216.00
2019-02-14T09:56:48.242Z,7540.00
2019-02-14T09:57:48.235Z,7708.00
2019-02-14T09:58:48.667Z,7788.00
2019-02-14T09:59:48.269Z,7904.00
2019-02-14T10:00:48.215Z,7572.00
2019-02-14T10:01:48.344Z,7104.00
2019-02-14T10:02:48.744Z,7004.00
2019-02-14T10:03:48.224Z,7000.00
2019-02-14T10:04:48.241Z,7336.00
2019-02-14T10:05:51.144Z,7148.00
2019-02-14T10:06:48.276Z,7220.00
2019-02-14T10:07:48.176Z,7536.00
2019-02-14T10:08:48.656Z,7528.00
2019-02-14T10:09:48.200Z,7700.00
2019-02-14T10:10:48.100Z,7812.00
2019-02-14T10:11:48.093Z,8100.00
2019-02-14T10:12:48.695Z,8176.00
2019-02-14T10:13:48.116Z,8456.00
2019-02-14T10:14:48.174Z,8572.00
2019-02-14T10:15:48.050Z,8540.00
2019-02-14T10:16:48.029Z,9016.00
2019-02-14T10:17:48.021Z,8724.00
2019-02-14T10:18:48.371Z,8500.00
2019-02-14T10:19:48.056Z,8540.00
2019-02-14T10:20:49.137Z,9016.00
2019-02-14T10:21:48.744Z,9012.00
2019-02-14T10:22:47.982Z,9008.00
2019-02-14T10:23:48.028Z,9372.00
2019-02-14T10:24:48.677Z,9148.00
2019-02-14T10:25:48.667Z,9240.00
2019-02-14T10:26:48.675Z,9232.00
2019-02-14T10:27:47.925Z,9240.00
2019-02-14T10:28:47.909Z,9280.00
2019-02-14T10:29:47.896Z,9312.00
2019-02-14T10:30:47.891Z,9052.00
2019-02-14T10:31:48.366Z,9072.00
2019-02-14T10:32:47.879Z,8856.00
2019-02-14T10:33:47.911Z,8856.00
2019-02-14T10:34:47.842Z,8564.00
2019-02-14T10:35:47.832Z,8476.00
2019-02-14T10:36:47.821Z,8508.00
2019-02-14T10:37:48.091Z,8408.00
2019-02-14T10:38:48.296Z,8052.00
2019-02-14T10:39:47.798Z,7860.00
2019-02-14T10:40:47.805Z,7712.00
2019-02-14T10:41:48.205Z,7556.00
2019-02-14T10:42:47.821Z,7332.00
2019-02-14T10:43:49.177Z,7448.00
2019-02-14T10:44:47.740Z,7296.00
2019-02-14T10:45:47.775Z,7700.00
2019-02-14T10:46:47.980Z,7448.00
2019-02-14T10:47:47.862Z,7708.00
2019-02-14T10:48:47.693Z,7944.00
2019-02-14T10:49:47.736Z,8244.00
2019-02-14T10:50:47.676Z,8632.00
2019-02-14T10:51:47.982Z,8916.00
2019-02-14T10:52:47.719Z,9008.00
2019-02-14T10:53:48.097Z,8856.00
2019-02-14T10:54:47.721Z,8772.00
2019-02-14T10:55:48.498Z,8704.00
2019-02-14T10:56:48.292Z,8652.00
2019-02-14T10:57:47.749Z,8464.00
2019-02-14T10:58:47.598Z,8420.00
2019-02-14T10:59:47.716Z,8268.00
2019-02-14T11:00:47.571Z,7992.00
2019-02-14T11:01:47.639Z,7872.00
2019-02-14T11:02:48.181Z,7964.00
2019-02-14T11:03:48.138Z,7852.00
2019-02-14T11:04:47.546Z,7992.00
2019-02-14T11:05:47.555Z,7968.00
2019-02-14T11:06:47.519Z,8144.00
2019-02-14T11:07:47.578Z,8256.00
2019-02-14T11:08:47.502Z,8348.00
2019-02-14T11:09:47.842Z,8264.00
2019-02-14T11:10:47.639Z,8232.00
2019-02-14T11:11:47.493Z,8036.00
2019-02-14T11:12:47.511Z,8016.00
2019-02-14T11:13:47.495Z,8068.00
2019-02-14T11:14:47.504Z,8004.00
2019-02-14T11:15:47.416Z,8256.00
2019-02-14T11:16:47.823Z,8068.00
2019-02-14T11:17:48.896Z,8368.00
2019-02-14T11:18:47.416Z,8532.00
2019-02-14T11:19:48.229Z,8700.00
2019-02-14T11:20:48.375Z,9060.00
2019-02-14T11:21:47.357Z,9324.00
2019-02-14T11:22:49.016Z,9648.00
2019-02-14T11:23:47.336Z,9868.00
2019-02-14T11:24:47.314Z,9908.00
2019-02-14T11:25:47.359Z,9520.00
2019-02-14T11:26:47.294Z,8684.00
2019-02-14T11:27:47.282Z,8232.00
2019-02-14T11:28:47.333Z,8848.00
2019-02-14T11:29:47.269Z,8160.00
2019-02-14T11:30:47.311Z,8264.00
2019-02-14T11:31:47.290Z,8888.00
2019-02-14T11:32:47.237Z,8400.00
2019-02-14T11:33:47.223Z,7920.00
2019-02-14T11:34:47.237Z,7248.00
2019-02-14T11:35:47.207Z,6924.00
2019-02-14T11:36:47.216Z,6656.00
2019-02-14T11:37:47.386Z,6688.00
2019-02-14T11:38:47.211Z,6592.00
2019-02-14T11:39:47.263Z,6748.00
2019-02-14T11:40:47.219Z,6736.00
2019-02-14T11:41:47.146Z,6744.00
2019-02-14T11:42:47.170Z,6868.00
2019-02-14T11:43:47.147Z,7092.00
2019-02-14T11:44:47.166Z,7112.00
2019-02-14T11:45:47.111Z,7280.00
2019-02-14T11:46:51.589Z,7784.00
2019-02-14T11:47:47.297Z,19264.00
2019-02-14T11:48:47.937Z,45216.00
2019-02-14T11:49:47.347Z,90912.00
2019-02-14T11:50:47.167Z,109664.00
2019-02-14T11:51:47.233Z,108032.00
2019-02-14T11:52:47.674Z,108288.00
2019-02-14T11:53:47.464Z,108864.00
2019-02-14T11:54:47.002Z,112352.00
2019-02-14T11:55:47.039Z,110848.00
2019-02-14T11:56:47.032Z,111200.00
2019-02-14T11:57:47.001Z,108128.00
2019-02-14T11:58:46.958Z,104960.00
2019-02-14T11:59:46.957Z,99552.00
2019-02-14T12:00:47.041Z,98208.00
2019-02-14T12:01:55.192Z,95776.00
2019-02-14T12:02:55.113Z,96384.00
2019-02-14T12:03:47.954Z,96416.00
2019-02-14T12:04:46.946Z,99872.00
2019-02-14T12:05:46.910Z,100800.00
2019-02-14T12:06:46.973Z,102720.00
2019-02-14T12:07:47.130Z,100992.00
2019-02-14T12:08:57.850Z,107136.00
2019-02-14T12:09:47.857Z,105920.00
2019-02-14T12:10:46.841Z,106144.00
2019-02-14T12:11:47.309Z,102048.00
2019-02-14T12:12:46.820Z,108000.00
2019-02-14T12:13:46.953Z,110208.00
2019-02-14T12:14:46.805Z,104352.00
2019-02-14T12:15:46.840Z,109888.00
2019-02-14T12:16:46.859Z,106976.00
2019-02-14T12:17:47.905Z,105056.00
2019-02-14T12:18:48.679Z,108128.00
2019-02-14T12:19:48.920Z,109248.00
2019-02-14T12:20:48.009Z,108128.00
2019-02-14T12:21:46.728Z,106240.00
2019-02-14T12:22:47.418Z,106208.00
2019-02-14T12:23:46.704Z,103200.00
2019-02-14T12:24:46.767Z,96896.00
2019-02-14T12:25:47.205Z,92096.00
2019-02-14T12:26:46.704Z,91328.00
2019-02-14T12:27:46.662Z,92256.00
2019-02-14T12:28:46.690Z,100224.00
2019-02-14T12:29:46.777Z,104192.00
2019-02-14T12:30:46.663Z,105696.00